EKFU weather

Fur Airport
Fur, Central Jutland, Denmark

Public forecast

Using degrees Celsius for public forecast. Weather courtesy of forecast.io.

Closest aviation weather report (METAR) to Fur Airport

Closest report is Karup Airport, 32.0 nm (59.2 km) S. Retrieved 2019/12/16 12:35 UTC (0 seconds ago):

EKKA 161235Z 21006KT 170V240 8000 FEW009 BKN012 SCT018CB 05/04 Q0999 RESHRA TEMPO 20012G25KT 3500 TSRA BKN008 BKN015CB

Closest aviation forecast (TAF) to Fur Airport

Closest forecast is Karup Airport, 32.0 nm (59.2 km) S. Retrieved 2019/12/16 12:31 UTC (4 minutes ago):

TAF EKKA 161110Z 1612/1712 21008KT 9999 SCT030 TEMPO 1612/1617 20012G25KT 4000 SHRA BKN008 BKN015CB PROB40 1612/1617 TSRA TEMPO 1617/1624 4000 BR TEMPO 1700/1704 1200 BR BKN003 BECMG 1704/1706 17006KT 2000 -DZRA BR BKN004 TEMPO 1706/1709 5000 RADZ BKN008